createdAt,value
2022-12-23T00:00:04.860Z,97049.00
2022-12-23T00:00:14.831Z,97047.00
2022-12-23T00:00:24.859Z,97051.00
2022-12-23T00:00:35.201Z,97051.00
2022-12-23T00:00:45.021Z,97047.00
2022-12-23T00:00:54.822Z,97049.00
2022-12-23T00:01:06.265Z,97049.00
2022-12-23T00:01:14.830Z,97051.00
2022-12-23T00:01:26.382Z,97053.00
2022-12-23T00:01:36.412Z,97051.00
2022-12-23T00:01:46.401Z,97049.00
2022-12-23T00:01:56.381Z,97047.00
2022-12-23T00:02:05.859Z,97049.00
2022-12-23T00:02:16.405Z,97051.00
2022-12-23T00:02:25.360Z,97049.00
2022-12-23T00:02:36.011Z,97047.00
2022-12-23T00:02:44.966Z,97049.00
2022-12-23T00:02:55.141Z,97049.00
2022-12-23T00:03:06.413Z,97051.00
2022-12-23T00:03:14.959Z,97051.00
2022-12-23T00:03:25.860Z,97049.00
2022-12-23T00:03:36.358Z,97053.00
2022-12-23T00:03:44.970Z,97049.00
2022-12-23T00:03:54.871Z,97051.00
2022-12-23T00:04:04.897Z,97049.00
2022-12-23T00:04:14.883Z,97049.00
2022-12-23T00:04:24.907Z,97047.00
2022-12-23T00:04:34.803Z,97051.00
2022-12-23T00:04:44.861Z,97049.00
2022-12-23T00:04:54.813Z,97049.00
2022-12-23T00:05:04.804Z,97047.00
2022-12-23T00:05:14.794Z,97049.00
2022-12-23T00:05:24.798Z,97051.00
2022-12-23T00:05:37.944Z,97051.00
2022-12-23T00:05:44.827Z,97053.00
2022-12-23T00:05:54.792Z,97051.00
2022-12-23T00:06:06.264Z,97045.00
2022-12-23T00:06:14.797Z,97045.00
2022-12-23T00:06:26.255Z,97049.00
2022-12-23T00:06:36.260Z,97051.00
2022-12-23T00:06:46.253Z,97051.00
2022-12-23T00:06:54.799Z,97047.00
2022-12-23T00:07:04.933Z,97049.00
2022-12-23T00:07:14.862Z,97049.00
2022-12-23T00:07:24.870Z,97049.00
2022-12-23T00:07:34.934Z,97049.00
2022-12-23T00:07:44.965Z,97055.00
2022-12-23T00:07:54.892Z,97055.00
2022-12-23T00:08:04.786Z,97055.00
2022-12-23T00:08:16.221Z,97051.00
2022-12-23T00:08:25.014Z,97053.00
2022-12-23T00:08:34.942Z,97051.00
2022-12-23T00:08:44.775Z,97055.00
2022-12-23T00:08:55.025Z,97053.00
2022-12-23T00:09:06.259Z,97053.00
2022-12-23T00:09:14.944Z,97053.00
2022-12-23T00:09:25.016Z,97051.00
2022-12-23T00:09:34.916Z,97053.00
2022-12-23T00:09:44.991Z,97053.00
2022-12-23T00:09:54.765Z,97051.00
2022-12-23T00:10:04.840Z,97053.00
2022-12-23T00:10:14.990Z,97049.00
2022-12-23T00:10:24.743Z,97051.00
2022-12-23T00:10:35.033Z,97053.00
2022-12-23T00:10:44.786Z,97053.00
2022-12-23T00:10:56.197Z,97053.00
2022-12-23T00:11:04.770Z,97053.00
2022-12-23T00:11:15.096Z,97051.00
2022-12-23T00:11:25.034Z,97051.00
2022-12-23T00:11:36.213Z,97055.00
2022-12-23T00:11:44.744Z,97051.00
2022-12-23T00:11:54.853Z,97053.00
2022-12-23T00:12:04.731Z,97051.00
2022-12-23T00:12:14.759Z,97053.00
2022-12-23T00:12:24.759Z,97051.00
2022-12-23T00:12:35.575Z,97051.00
2022-12-23T00:12:44.754Z,97051.00
2022-12-23T00:12:54.804Z,97053.00
2022-12-23T00:13:04.769Z,97053.00
2022-12-23T00:13:14.767Z,97053.00
2022-12-23T00:13:24.735Z,97053.00
2022-12-23T00:13:34.739Z,97053.00
2022-12-23T00:13:44.760Z,97055.00
2022-12-23T00:13:54.740Z,97051.00
2022-12-23T00:14:04.733Z,97053.00
2022-12-23T00:14:21.161Z,97053.00
2022-12-23T00:14:26.795Z,97051.00
2022-12-23T00:14:35.310Z,97055.00
2022-12-23T00:14:46.754Z,97055.00
2022-12-23T00:14:55.318Z,97055.00
2022-12-23T00:15:05.363Z,97055.00
2022-12-23T00:15:15.351Z,97055.00
2022-12-23T00:15:25.346Z,97053.00
2022-12-23T00:15:35.334Z,97055.00
2022-12-23T00:15:45.340Z,97053.00
2022-12-23T00:15:55.341Z,97055.00
2022-12-23T00:16:05.411Z,97057.00
2022-12-23T00:16:16.811Z,97055.00
2022-12-23T00:16:25.406Z,97057.00
2022-12-23T00:16:35.367Z,97055.00
2022-12-23T00:16:45.313Z,97055.00
2022-12-23T00:16:55.394Z,97055.00
2022-12-23T00:17:12.945Z,97057.00
2022-12-23T00:17:22.453Z,97053.00
2022-12-23T00:17:25.321Z,97055.00
2022-12-23T00:17:35.320Z,97053.00
2022-12-23T00:17:45.364Z,97055.00
2022-12-23T00:17:55.386Z,97053.00
2022-12-23T00:18:05.393Z,97057.00
2022-12-23T00:18:15.293Z,97053.00
2022-12-23T00:18:25.353Z,97053.00
2022-12-23T00:18:35.383Z,97053.00
2022-12-23T00:18:45.424Z,97051.00
2022-12-23T00:18:55.492Z,97055.00
2022-12-23T00:19:05.283Z,97051.00
2022-12-23T00:19:15.312Z,97051.00
2022-12-23T00:19:26.724Z,97051.00
2022-12-23T00:19:36.740Z,97053.00
2022-12-23T00:19:45.305Z,97049.00
2022-12-23T00:19:55.480Z,97051.00
2022-12-23T00:20:06.744Z,97051.00
2022-12-23T00:20:15.312Z,97053.00
2022-12-23T00:20:25.470Z,97049.00
2022-12-23T00:20:35.266Z,97047.00
2022-12-23T00:20:46.730Z,97049.00
2022-12-23T00:20:56.715Z,97051.00
2022-12-23T00:21:08.983Z,97049.00
2022-12-23T00:21:15.766Z,97049.00
2022-12-23T00:21:26.226Z,97043.00
2022-12-23T00:21:35.343Z,97051.00
2022-12-23T00:21:45.284Z,97047.00
2022-12-23T00:21:55.275Z,97047.00
2022-12-23T00:22:05.306Z,97047.00
2022-12-23T00:22:15.295Z,97047.00
2022-12-23T00:22:26.726Z,97049.00
2022-12-23T00:22:36.235Z,97049.00
2022-12-23T00:22:45.274Z,97049.00
2022-12-23T00:22:55.351Z,97049.00
2022-12-23T00:23:05.293Z,97047.00
2022-12-23T00:23:15.281Z,97047.00
2022-12-23T00:23:25.291Z,97047.00
2022-12-23T00:23:35.236Z,97049.00
2022-12-23T00:23:45.275Z,97051.00
2022-12-23T00:23:55.274Z,97051.00
2022-12-23T00:24:05.274Z,97049.00
2022-12-23T00:24:16.720Z,97051.00
2022-12-23T00:24:25.253Z,97049.00
2022-12-23T00:24:35.274Z,97047.00
2022-12-23T00:24:45.259Z,97049.00
2022-12-23T00:24:55.247Z,97051.00
2022-12-23T00:25:06.705Z,97049.00
2022-12-23T00:25:15.239Z,97051.00
2022-12-23T00:25:26.152Z,97049.00
2022-12-23T00:25:35.247Z,97045.00
2022-12-23T00:25:45.265Z,97051.00
2022-12-23T00:25:55.245Z,97047.00
2022-12-23T00:26:06.708Z,97051.00
2022-12-23T00:26:16.232Z,97047.00
2022-12-23T00:26:25.249Z,97051.00
2022-12-23T00:26:35.237Z,97049.00
2022-12-23T00:26:45.348Z,97051.00
2022-12-23T00:26:55.524Z,97047.00
2022-12-23T00:27:05.226Z,97053.00
2022-12-23T00:27:15.241Z,97047.00
2022-12-23T00:27:26.687Z,97053.00
2022-12-23T00:27:37.823Z,97047.00
2022-12-23T00:27:46.179Z,97051.00
2022-12-23T00:27:55.662Z,97047.00
2022-12-23T00:28:06.675Z,97047.00
2022-12-23T00:28:15.211Z,97049.00
2022-12-23T00:28:25.229Z,97047.00
2022-12-23T00:28:36.684Z,97049.00
2022-12-23T00:28:45.213Z,97049.00
2022-12-23T00:28:56.649Z,97051.00
2022-12-23T00:29:06.663Z,97047.00
2022-12-23T00:29:16.655Z,97047.00
2022-12-23T00:29:26.657Z,97045.00
2022-12-23T00:29:35.227Z,97045.00
2022-12-23T00:29:46.651Z,97043.00
2022-12-23T00:29:55.258Z,97043.00
2022-12-23T00:30:05.398Z,97043.00
2022-12-23T00:30:15.195Z,97043.00
2022-12-23T00:30:25.684Z,97045.00
2022-12-23T00:30:36.163Z,97045.00
2022-12-23T00:30:45.206Z,97047.00
2022-12-23T00:30:55.259Z,97045.00
2022-12-23T00:31:05.197Z,97045.00
2022-12-23T00:31:15.250Z,97045.00
2022-12-23T00:31:25.310Z,97045.00
2022-12-23T00:31:35.275Z,97047.00
2022-12-23T00:31:45.271Z,97047.00
2022-12-23T00:31:56.081Z,97047.00
2022-12-23T00:32:05.253Z,97045.00
2022-12-23T00:32:15.591Z,97045.00
2022-12-23T00:32:25.167Z,97051.00
2022-12-23T00:32:35.967Z,97047.00
2022-12-23T00:32:45.197Z,97047.00
2022-12-23T00:32:55.233Z,97047.00
2022-12-23T00:33:06.623Z,97049.00
2022-12-23T00:33:15.283Z,97051.00
2022-12-23T00:33:25.205Z,97051.00
2022-12-23T00:33:35.201Z,97049.00
2022-12-23T00:33:45.183Z,97049.00
2022-12-23T00:33:56.114Z,97049.00
2022-12-23T00:34:06.153Z,97049.00
2022-12-23T00:34:16.646Z,97049.00
2022-12-23T00:34:25.178Z,97049.00
2022-12-23T00:34:35.188Z,97051.00
2022-12-23T00:34:46.618Z,97049.00
2022-12-23T00:34:56.629Z,97049.00
2022-12-23T00:35:05.157Z,97045.00
2022-12-23T00:35:16.624Z,97051.00
2022-12-23T00:35:26.611Z,97049.00
2022-12-23T00:35:35.161Z,97047.00
2022-12-23T00:35:45.232Z,97049.00
2022-12-23T00:35:55.210Z,97047.00
2022-12-23T00:36:05.215Z,97049.00
2022-12-23T00:36:15.297Z,97045.00
2022-12-23T00:36:26.692Z,97049.00
2022-12-23T00:36:35.203Z,97049.00
2022-12-23T00:36:45.149Z,97051.00
2022-12-23T00:36:55.183Z,97051.00
2022-12-23T00:37:05.198Z,97051.00
2022-12-23T00:37:15.160Z,97051.00
2022-12-23T00:37:25.160Z,97051.00
2022-12-23T00:37:35.159Z,97051.00
2022-12-23T00:37:45.150Z,97051.00
2022-12-23T00:37:55.188Z,97049.00
2022-12-23T00:38:05.950Z,97049.00
2022-12-23T00:38:15.180Z,97049.00
2022-12-23T00:38:25.149Z,97051.00
2022-12-23T00:38:35.151Z,97051.00
2022-12-23T00:38:45.151Z,97051.00
2022-12-23T00:38:55.156Z,97051.00
2022-12-23T00:39:05.224Z,97049.00
2022-12-23T00:39:15.146Z,97053.00
2022-12-23T00:39:25.138Z,97055.00
2022-12-23T00:39:35.129Z,97053.00
2022-12-23T00:39:45.146Z,97053.00
2022-12-23T00:39:55.785Z,97055.00
2022-12-23T00:40:07.126Z,97055.00
2022-12-23T00:40:16.591Z,97053.00
2022-12-23T00:40:25.150Z,97053.00
2022-12-23T00:40:35.129Z,97055.00
2022-12-23T00:40:46.579Z,97055.00
2022-12-23T00:40:55.140Z,97055.00
2022-12-23T00:41:05.129Z,97057.00
2022-12-23T00:41:15.483Z,97055.00
2022-12-23T00:41:25.099Z,97053.00
2022-12-23T00:41:35.135Z,97053.00
2022-12-23T00:41:46.576Z,97053.00
2022-12-23T00:41:55.129Z,97055.00
2022-12-23T00:42:05.123Z,97055.00
2022-12-23T00:42:15.128Z,97057.00
2022-12-23T00:42:25.113Z,97055.00
2022-12-23T00:42:35.131Z,97053.00
2022-12-23T00:42:45.120Z,97055.00
2022-12-23T00:42:55.121Z,97053.00
2022-12-23T00:43:05.137Z,97055.00
2022-12-23T00:43:15.227Z,97055.00
2022-12-23T00:43:25.091Z,97055.00
2022-12-23T00:43:36.602Z,97053.00
2022-12-23T00:43:45.109Z,97055.00
2022-12-23T00:43:56.551Z,97051.00
2022-12-23T00:44:05.705Z,97055.00
2022-12-23T00:44:15.108Z,97053.00
2022-12-23T00:44:25.073Z,97055.00
2022-12-23T00:44:35.190Z,97051.00
2022-12-23T00:44:45.500Z,97055.00
2022-12-23T00:44:56.560Z,97053.00
2022-12-23T00:45:05.118Z,97053.00
2022-12-23T00:45:15.106Z,97051.00
2022-12-23T00:45:25.653Z,97055.00
2022-12-23T00:45:35.743Z,97051.00
2022-12-23T00:45:46.589Z,97051.00
2022-12-23T00:45:55.187Z,97053.00
2022-12-23T00:46:05.433Z,97053.00
2022-12-23T00:46:15.839Z,97055.00
2022-12-23T00:46:25.998Z,97051.00
2022-12-23T00:46:35.153Z,97051.00
2022-12-23T00:46:45.112Z,97053.00
2022-12-23T00:46:55.772Z,97051.00
2022-12-23T00:47:05.091Z,97055.00
2022-12-23T00:47:15.085Z,97055.00
2022-12-23T00:47:25.273Z,97053.00
2022-12-23T00:47:35.608Z,97055.00
2022-12-23T00:47:45.542Z,97055.00
2022-12-23T00:47:55.779Z,97055.00
2022-12-23T00:48:05.838Z,97057.00
2022-12-23T00:48:15.072Z,97055.00
2022-12-23T00:48:25.894Z,97055.00
2022-12-23T00:48:35.178Z,97055.00
2022-12-23T00:48:45.081Z,97055.00
2022-12-23T00:48:55.104Z,97055.00
2022-12-23T00:49:05.924Z,97057.00
2022-12-23T00:49:15.945Z,97059.00
2022-12-23T00:49:25.085Z,97057.00
2022-12-23T00:49:35.041Z,97057.00
2022-12-23T00:49:45.086Z,97059.00
2022-12-23T00:49:55.290Z,97057.00
2022-12-23T00:50:05.048Z,97059.00
2022-12-23T00:50:16.517Z,97057.00
2022-12-23T00:50:25.058Z,97059.00
2022-12-23T00:50:35.075Z,97057.00
2022-12-23T00:50:46.018Z,97057.00
2022-12-23T00:50:56.513Z,97059.00
2022-12-23T00:51:06.506Z,97055.00
2022-12-23T00:51:15.074Z,97055.00
2022-12-23T00:51:25.083Z,97055.00
2022-12-23T00:51:35.067Z,97057.00
2022-12-23T00:51:45.048Z,97055.00
2022-12-23T00:51:55.069Z,97055.00
2022-12-23T00:52:05.071Z,97057.00
2022-12-23T00:52:15.109Z,97053.00
2022-12-23T00:52:25.046Z,97055.00
2022-12-23T00:52:35.043Z,97055.00
2022-12-23T00:52:46.507Z,97055.00
2022-12-23T00:52:55.081Z,97055.00
2022-12-23T00:53:06.483Z,97053.00
2022-12-23T00:53:16.484Z,97055.00
2022-12-23T00:53:25.038Z,97055.00
2022-12-23T00:53:35.025Z,97053.00
2022-12-23T00:53:45.052Z,97055.00
2022-12-23T00:53:55.071Z,97055.00
2022-12-23T00:54:05.041Z,97051.00
2022-12-23T00:54:15.055Z,97055.00
2022-12-23T00:54:25.042Z,97055.00
2022-12-23T00:54:35.048Z,97053.00
2022-12-23T00:54:45.052Z,97057.00
2022-12-23T00:54:56.474Z,97055.00
2022-12-23T00:55:06.541Z,97053.00
2022-12-23T00:55:15.017Z,97053.00
2022-12-23T00:55:25.053Z,97053.00
2022-12-23T00:55:35.013Z,97053.00
2022-12-23T00:55:45.033Z,97053.00
2022-12-23T00:55:55.777Z,97055.00
2022-12-23T00:56:05.025Z,97055.00
2022-12-23T00:56:15.043Z,97055.00
2022-12-23T00:56:26.463Z,97057.00
2022-12-23T00:56:35.015Z,97053.00
2022-12-23T00:56:45.028Z,97053.00
2022-12-23T00:56:55.015Z,97051.00
2022-12-23T00:57:05.026Z,97055.00
2022-12-23T00:57:14.982Z,97053.00
2022-12-23T00:57:25.029Z,97051.00
2022-12-23T00:57:35.008Z,97051.00
2022-12-23T00:57:44.997Z,97051.00
2022-12-23T00:57:55.022Z,97051.00
2022-12-23T00:58:06.463Z,97047.00
2022-12-23T00:58:16.434Z,97047.00
2022-12-23T00:58:25.054Z,97047.00
2022-12-23T00:58:36.463Z,97047.00
2022-12-23T00:58:45.004Z,97047.00
2022-12-23T00:58:55.053Z,97047.00
2022-12-23T00:59:04.994Z,97047.00
2022-12-23T00:59:14.999Z,97049.00
2022-12-23T00:59:26.434Z,97047.00
2022-12-23T00:59:34.992Z,97049.00
2022-12-23T00:59:45.048Z,97043.00
2022-12-23T00:59:54.987Z,97047.00
2022-12-23T01:00:05.016Z,97045.00
2022-12-23T01:00:14.964Z,97043.00
2022-12-23T01:00:26.424Z,97041.00
2022-12-23T01:00:35.941Z,97045.00
2022-12-23T01:00:45.034Z,97043.00
2022-12-23T01:00:55.011Z,97045.00
2022-12-23T01:01:05.859Z,97041.00
2022-12-23T01:01:16.501Z,97043.00
2022-12-23T01:01:26.577Z,97041.00
2022-12-23T01:01:35.022Z,97043.00
2022-12-23T01:01:45.133Z,97043.00
2022-12-23T01:01:56.754Z,97039.00
2022-12-23T01:02:06.613Z,97045.00
2022-12-23T01:02:16.019Z,97045.00
2022-12-23T01:02:25.163Z,97041.00
2022-12-23T01:02:36.597Z,97045.00
2022-12-23T01:02:45.058Z,97047.00
2022-12-23T01:02:55.685Z,97045.00
2022-12-23T01:03:06.561Z,97045.00
2022-12-23T01:03:15.093Z,97047.00
2022-12-23T01:03:25.892Z,97045.00
2022-12-23T01:03:34.993Z,97041.00
2022-12-23T01:03:44.971Z,97041.00
2022-12-23T01:03:54.956Z,97041.00
2022-12-23T01:04:04.969Z,97041.00
2022-12-23T01:04:16.405Z,97043.00
2022-12-23T01:04:24.988Z,97043.00
2022-12-23T01:04:34.945Z,97045.00
2022-12-23T01:04:44.992Z,97041.00
2022-12-23T01:04:54.953Z,97047.00
2022-12-23T01:05:05.015Z,97045.00
2022-12-23T01:05:14.991Z,97037.00
2022-12-23T01:05:24.933Z,97039.00
2022-12-23T01:05:34.956Z,97039.00
2022-12-23T01:05:46.407Z,97037.00
2022-12-23T01:05:55.615Z,97039.00
2022-12-23T01:06:04.944Z,97037.00
2022-12-23T01:06:14.953Z,97045.00
2022-12-23T01:06:25.023Z,97037.00
2022-12-23T01:06:35.716Z,97037.00
2022-12-23T01:06:45.167Z,97035.00
2022-12-23T01:06:54.910Z,97035.00
2022-12-23T01:07:05.741Z,97037.00
2022-12-23T01:07:14.925Z,97035.00
2022-12-23T01:07:24.974Z,97039.00
2022-12-23T01:07:35.729Z,97035.00
2022-12-23T01:07:45.785Z,97037.00
2022-12-23T01:07:54.936Z,97035.00
2022-12-23T01:08:05.741Z,97033.00
2022-12-23T01:08:16.377Z,97037.00
2022-12-23T01:08:24.927Z,97031.00
2022-12-23T01:08:35.836Z,97035.00
2022-12-23T01:08:44.928Z,97031.00
2022-12-23T01:08:55.835Z,97035.00
2022-12-23T01:09:05.797Z,97029.00
2022-12-23T01:09:14.918Z,97029.00
2022-12-23T01:09:24.928Z,97033.00
2022-12-23T01:09:34.975Z,97031.00
2022-12-23T01:09:44.898Z,97031.00
2022-12-23T01:09:54.928Z,97031.00
2022-12-23T01:10:04.927Z,97029.00
2022-12-23T01:10:14.914Z,97027.00
2022-12-23T01:10:26.349Z,97027.00
2022-12-23T01:10:34.895Z,97027.00
2022-12-23T01:10:44.907Z,97029.00
2022-12-23T01:10:56.367Z,97027.00
2022-12-23T01:11:04.913Z,97029.00
2022-12-23T01:11:16.357Z,97027.00
2022-12-23T01:11:25.818Z,97027.00
2022-12-23T01:11:34.903Z,97029.00
2022-12-23T01:11:45.122Z,97027.00
2022-12-23T01:11:56.367Z,97029.00
2022-12-23T01:12:04.907Z,97025.00
2022-12-23T01:12:16.341Z,97027.00
2022-12-23T01:12:25.024Z,97027.00
2022-12-23T01:12:35.845Z,97025.00
2022-12-23T01:12:46.357Z,97025.00
2022-12-23T01:12:54.905Z,97029.00
2022-12-23T01:13:06.337Z,97023.00
2022-12-23T01:13:14.990Z,97021.00
2022-12-23T01:13:25.008Z,97027.00
2022-12-23T01:13:35.078Z,97027.00
2022-12-23T01:13:45.082Z,97021.00
2022-12-23T01:13:55.011Z,97023.00
2022-12-23T01:14:05.078Z,97027.00
2022-12-23T01:14:15.207Z,97023.00
2022-12-23T01:14:25.153Z,97021.00
2022-12-23T01:14:35.100Z,97021.00
2022-12-23T01:14:45.118Z,97021.00
2022-12-23T01:14:55.156Z,97021.00
2022-12-23T01:15:04.900Z,97021.00
2022-12-23T01:15:14.882Z,97023.00
2022-12-23T01:15:25.164Z,97021.00
2022-12-23T01:15:35.158Z,97021.00
2022-12-23T01:15:45.113Z,97021.00
2022-12-23T01:15:55.169Z,97023.00
2022-12-23T01:16:05.258Z,97021.00
2022-12-23T01:16:17.771Z,97023.00
2022-12-23T01:16:25.179Z,97023.00
2022-12-23T01:16:35.080Z,97023.00
2022-12-23T01:16:46.380Z,97021.00
2022-12-23T01:16:55.099Z,97023.00
2022-12-23T01:17:04.915Z,97025.00
2022-12-23T01:17:16.458Z,97023.00
2022-12-23T01:17:25.409Z,97023.00
2022-12-23T01:17:35.837Z,97025.00
2022-12-23T01:17:44.869Z,97025.00
2022-12-23T01:17:54.959Z,97027.00
2022-12-23T01:18:04.880Z,97023.00
2022-12-23T01:18:14.876Z,97025.00
2022-12-23T01:18:24.861Z,97027.00
2022-12-23T01:18:34.869Z,97025.00
2022-12-23T01:18:44.909Z,97027.00
2022-12-23T01:18:55.281Z,97025.00
2022-12-23T01:19:04.829Z,97027.00
2022-12-23T01:19:14.853Z,97027.00
2022-12-23T01:19:24.848Z,97027.00
2022-12-23T01:19:36.289Z,97029.00
2022-12-23T01:19:45.793Z,97029.00
2022-12-23T01:19:56.293Z,97031.00
2022-12-23T01:20:05.833Z,97031.00
2022-12-23T01:20:14.841Z,97031.00
2022-12-23T01:20:24.862Z,97029.00
2022-12-23T01:20:34.833Z,97031.00
2022-12-23T01:20:46.309Z,97031.00
2022-12-23T01:20:54.872Z,97033.00
2022-12-23T01:21:04.849Z,97033.00
2022-12-23T01:21:14.856Z,97035.00
2022-12-23T01:21:24.850Z,97035.00
2022-12-23T01:21:36.279Z,97035.00
2022-12-23T01:21:44.969Z,97037.00
2022-12-23T01:21:54.829Z,97037.00
2022-12-23T01:22:04.859Z,97041.00
2022-12-23T01:22:14.839Z,97037.00
2022-12-23T01:22:24.859Z,97037.00
2022-12-23T01:22:34.801Z,97039.00
2022-12-23T01:22:46.295Z,97037.00
2022-12-23T01:22:54.829Z,97041.00
2022-12-23T01:23:04.855Z,97039.00
2022-12-23T01:23:14.836Z,97037.00
2022-12-23T01:23:24.830Z,97037.00
2022-12-23T01:23:34.823Z,97041.00
2022-12-23T01:23:45.827Z,97039.00
2022-12-23T01:23:54.828Z,97039.00
2022-12-23T01:24:04.840Z,97037.00
2022-12-23T01:24:14.800Z,97041.00
2022-12-23T01:24:24.841Z,97039.00
2022-12-23T01:24:36.274Z,97041.00
2022-12-23T01:24:46.323Z,97039.00
2022-12-23T01:24:56.284Z,97041.00
2022-12-23T01:25:04.838Z,97043.00
2022-12-23T01:25:14.808Z,97039.00
2022-12-23T01:25:24.832Z,97039.00
2022-12-23T01:25:34.860Z,97039.00
2022-12-23T01:25:46.250Z,97043.00
2022-12-23T01:25:56.259Z,97043.00
2022-12-23T01:26:04.794Z,97041.00
2022-12-23T01:26:16.250Z,97041.00
2022-12-23T01:26:24.835Z,97039.00
2022-12-23T01:26:34.831Z,97041.00
2022-12-23T01:26:46.311Z,97041.00
2022-12-23T01:26:55.774Z,97037.00
2022-12-23T01:27:04.806Z,97037.00
2022-12-23T01:27:16.265Z,97039.00
2022-12-23T01:27:24.801Z,97043.00
2022-12-23T01:27:34.810Z,97037.00
2022-12-23T01:27:46.254Z,97039.00
2022-12-23T01:27:56.263Z,97039.00
2022-12-23T01:28:04.804Z,97041.00
2022-12-23T01:28:14.795Z,97043.00
2022-12-23T01:28:25.730Z,97041.00
2022-12-23T01:28:34.802Z,97043.00
2022-12-23T01:28:44.809Z,97041.00
2022-12-23T01:28:54.784Z,97043.00
2022-12-23T01:29:04.841Z,97045.00
2022-12-23T01:29:14.794Z,97045.00
2022-12-23T01:29:26.257Z,97043.00
2022-12-23T01:29:34.773Z,97043.00
2022-12-23T01:29:45.743Z,97043.00
2022-12-23T01:29:56.211Z,97043.00
2022-12-23T01:30:04.773Z,97043.00
2022-12-23T01:30:16.221Z,97041.00
2022-12-23T01:30:26.200Z,97041.00
2022-12-23T01:30:34.765Z,97043.00
2022-12-23T01:30:44.762Z,97041.00
2022-12-23T01:30:54.812Z,97041.00
2022-12-23T01:31:06.222Z,97041.00
2022-12-23T01:31:14.786Z,97039.00
2022-12-23T01:31:24.871Z,97039.00
2022-12-23T01:31:34.899Z,97039.00
2022-12-23T01:31:44.850Z,97039.00
2022-12-23T01:31:54.901Z,97037.00
2022-12-23T01:32:04.902Z,97037.00
2022-12-23T01:32:14.908Z,97037.00
2022-12-23T01:32:24.750Z,97037.00
2022-12-23T01:32:34.819Z,97037.00
2022-12-23T01:32:44.755Z,97037.00
2022-12-23T01:32:54.772Z,97035.00
2022-12-23T01:33:04.779Z,97033.00
2022-12-23T01:33:14.760Z,97033.00
2022-12-23T01:33:24.982Z,97033.00
2022-12-23T01:33:34.774Z,97033.00
2022-12-23T01:33:44.776Z,97035.00
2022-12-23T01:33:54.761Z,97033.00
2022-12-23T01:34:04.758Z,97035.00
2022-12-23T01:34:14.810Z,97033.00
2022-12-23T01:34:24.768Z,97033.00
2022-12-23T01:34:37.411Z,97033.00
2022-12-23T01:34:44.792Z,97031.00
2022-12-23T01:34:54.789Z,97031.00
2022-12-23T01:35:04.729Z,97031.00
2022-12-23T01:35:14.713Z,97033.00
2022-12-23T01:35:24.722Z,97035.00
2022-12-23T01:35:34.788Z,97033.00
2022-12-23T01:35:46.164Z,97035.00
2022-12-23T01:35:54.734Z,97033.00
2022-12-23T01:36:04.712Z,97035.00
2022-12-23T01:36:14.773Z,97035.00
2022-12-23T01:36:26.153Z,97037.00
2022-12-23T01:36:34.744Z,97033.00
2022-12-23T01:36:46.176Z,97037.00
2022-12-23T01:36:54.732Z,97037.00
2022-12-23T01:37:04.850Z,97037.00
2022-12-23T01:37:16.159Z,97037.00
2022-12-23T01:37:26.189Z,97037.00
2022-12-23T01:37:34.742Z,97037.00
2022-12-23T01:37:44.740Z,97041.00
2022-12-23T01:37:54.730Z,97039.00
2022-12-23T01:38:04.721Z,97037.00
2022-12-23T01:38:16.164Z,97041.00
2022-12-23T01:38:24.712Z,97037.00
2022-12-23T01:38:34.705Z,97041.00
2022-12-23T01:38:44.714Z,97039.00
2022-12-23T01:38:56.191Z,97043.00
2022-12-23T01:39:04.716Z,97035.00
2022-12-23T01:39:14.706Z,97039.00
2022-12-23T01:39:25.151Z,97039.00
2022-12-23T01:39:34.694Z,97043.00
2022-12-23T01:39:44.702Z,97041.00
2022-12-23T01:39:54.746Z,97041.00
2022-12-23T01:40:06.143Z,97043.00
2022-12-23T01:40:14.729Z,97043.00
2022-12-23T01:40:25.133Z,97041.00
2022-12-23T01:40:34.704Z,97041.00
2022-12-23T01:40:46.141Z,97041.00
2022-12-23T01:40:54.747Z,97041.00
2022-12-23T01:41:04.784Z,97043.00
2022-12-23T01:41:16.131Z,97043.00
2022-12-23T01:41:24.691Z,97037.00
2022-12-23T01:41:34.714Z,97041.00
2022-12-23T01:41:46.138Z,97043.00
2022-12-23T01:41:54.695Z,97043.00
2022-12-23T01:42:04.719Z,97043.00
2022-12-23T01:42:14.684Z,97037.00
2022-12-23T01:42:24.952Z,97039.00
2022-12-23T01:42:34.696Z,97039.00
2022-12-23T01:42:44.679Z,97039.00
2022-12-23T01:42:54.686Z,97039.00
2022-12-23T01:43:06.136Z,97037.00
2022-12-23T01:43:14.715Z,97037.00
2022-12-23T01:43:25.116Z,97037.00
2022-12-23T01:43:35.158Z,97037.00
2022-12-23T01:43:45.094Z,97033.00
2022-12-23T01:43:55.123Z,97033.00
2022-12-23T01:44:05.185Z,97037.00
2022-12-23T01:44:15.098Z,97035.00
2022-12-23T01:44:25.015Z,97035.00
2022-12-23T01:44:34.693Z,97033.00
2022-12-23T01:44:44.726Z,97033.00
2022-12-23T01:44:54.678Z,97033.00
2022-12-23T01:45:05.156Z,97031.00
2022-12-23T01:45:14.655Z,97027.00
2022-12-23T01:45:25.132Z,97033.00
2022-12-23T01:45:34.791Z,97027.00
2022-12-23T01:45:45.136Z,97027.00
2022-12-23T01:45:54.728Z,97025.00
2022-12-23T01:46:05.169Z,97027.00
2022-12-23T01:46:15.319Z,97029.00
2022-12-23T01:46:24.709Z,97029.00
2022-12-23T01:46:34.635Z,97027.00
2022-12-23T01:46:46.074Z,97029.00
2022-12-23T01:46:54.645Z,97025.00
2022-12-23T01:47:04.705Z,97027.00
2022-12-23T01:47:15.445Z,97025.00
2022-12-23T01:47:24.657Z,97025.00
2022-12-23T01:47:36.155Z,97027.00
2022-12-23T01:47:44.661Z,97025.00
2022-12-23T01:47:54.682Z,97027.00
2022-12-23T01:48:06.126Z,97025.00
2022-12-23T01:48:14.801Z,97025.00
2022-12-23T01:48:24.644Z,97025.00
2022-12-23T01:48:34.637Z,97025.00
2022-12-23T01:48:44.648Z,97027.00
2022-12-23T01:48:54.666Z,97027.00
2022-12-23T01:49:06.112Z,97027.00
2022-12-23T01:49:14.633Z,97027.00
2022-12-23T01:49:26.106Z,97027.00
2022-12-23T01:49:35.601Z,97027.00
2022-12-23T01:49:46.073Z,97029.00
2022-12-23T01:49:54.626Z,97025.00
2022-12-23T01:50:04.652Z,97029.00
2022-12-23T01:50:14.645Z,97025.00
2022-12-23T01:50:24.641Z,97023.00
2022-12-23T01:50:36.079Z,97025.00
2022-12-23T01:50:44.657Z,97027.00
2022-12-23T01:50:54.627Z,97025.00
2022-12-23T01:51:05.597Z,97023.00
2022-12-23T01:51:16.086Z,97025.00
2022-12-23T01:51:26.809Z,97025.00
2022-12-23T01:51:34.636Z,97025.00
2022-12-23T01:51:45.544Z,97027.00
2022-12-23T01:51:54.619Z,97027.00
2022-12-23T01:52:04.612Z,97027.00
2022-12-23T01:52:14.617Z,97025.00
2022-12-23T01:52:24.639Z,97025.00
2022-12-23T01:52:34.640Z,97025.00
2022-12-23T01:52:44.630Z,97027.00
2022-12-23T01:52:54.731Z,97025.00
2022-12-23T01:53:07.807Z,97023.00
2022-12-23T01:53:16.089Z,97025.00
2022-12-23T01:53:26.043Z,97025.00
2022-12-23T01:53:34.598Z,97025.00
2022-12-23T01:53:46.058Z,97025.00
2022-12-23T01:53:54.595Z,97027.00
2022-12-23T01:54:04.617Z,97027.00
2022-12-23T01:54:14.607Z,97027.00
2022-12-23T01:54:26.038Z,97027.00
2022-12-23T01:54:34.600Z,97025.00
2022-12-23T01:54:44.640Z,97027.00
2022-12-23T01:54:56.111Z,97027.00
2022-12-23T01:55:04.596Z,97027.00
2022-12-23T01:55:14.976Z,97027.00
2022-12-23T01:55:24.586Z,97027.00
2022-12-23T01:55:34.936Z,97023.00
2022-12-23T01:55:44.586Z,97027.00
2022-12-23T01:55:54.594Z,97027.00
2022-12-23T01:56:05.070Z,97027.00
2022-12-23T01:56:14.567Z,97027.00
2022-12-23T01:56:24.845Z,97023.00
2022-12-23T01:56:34.582Z,97025.00
2022-12-23T01:56:46.027Z,97023.00
2022-12-23T01:56:56.027Z,97025.00
2022-12-23T01:57:04.590Z,97025.00
2022-12-23T01:57:14.583Z,97025.00
2022-12-23T01:57:26.027Z,97023.00